Dallas, Texas
Current Conditions -  °F | °C
As of 1:53 AM on Friday 31 Oct 2014 (Local Time) from KDAL Reporting Station
Clear Clear  
Wind Chill: 59°   Ceiling: Unl
Heat Index: 59°   Visibility: 10mi
Dew Point: 49°   Wind: 9mph
Humidity: 69%   Direction: 350°N
Pressure: 30.18"   Gusts: NA
Location:  32.78°N, 96.79°W
Report Text: KDAL 310653Z 35008KT 10SM CLR 15/09 A3018 RMK AO2 SLP215 T01500094
Loading
Personal Weather Stations






























Interactive Weather Map New forecast layout! Learn more

10-Day Weather Forecast

Advertisements
Track Severe Weather on mobile